NCAR-RAP Real-Time Weather Data

Output produced by METARs form (10 April 2020  07:26 UTC)
found at http://weather.rap.ucar.edu/surface/
 
KRFD 100654Z 29011KT 10SM CLR 01/M05 A3001 RMK AO2 SLP168 T00061050 $
KRFD 100554Z 29013G20KT 10SM CLR 01/M04 A2999 RMK AO2 SLP162 T00111044 10039 20006 400940006 $
KRFD 100454Z 30011KT 10SM CLR 01/M04 A2998 RMK AO2 SLP156 T00111044 $
KRFD 100354Z 30012KT 10SM CLR 02/M04 A2997 RMK AO2 SLP153 T00171039
KRFD 100254Z 30011KT 10SM CLR 02/M03 A2996 RMK AO2 SLP150 T00171033 51030
KRFD 100154Z 31016G24KT 10SM FEW060 02/M03 A2994 RMK AO2 SLP143 T00221028
KRFD 100054Z 30015KT 10SM FEW055 03/M03 A2990 RMK AO2 SLP129 T00281028
KRFD 092354Z 31015G25KT 10SM FEW030 SCT060 BKN085 04/M03 A2987 RMK AO2 PK WND 30030/2330 SLP119 60000 T00391033 10094 20033 53021
KRFD 092254Z 29013KT 10SM FEW027 SCT065 SCT085 BKN250 05/M03 A2984 RMK AO2 PK WND 34037/2219 SNB2159E31 SLP109 P0000 T00501028
KRFD 092154Z 31018G28KT 10SM FEW043 SCT060 BKN090 07/M06 A2980 RMK AO2 PK WND 29034/2127 SLP097 T00671061
KRFD 092054Z 28014G23KT 10SM FEW042 SCT050 SCT090 OVC250 06/M02 A2980 RMK AO2 PK WND 28043/2024 SNB1956E10B26E41 SLP096 P0000 60000 T00611017 53002
KRFD 091954Z 32031G46KT 10SM FEW050 SCT070 BKN090 08/M06 A2980 RMK AO2 PK WND 29046/1953 SNE07 SLP095 P0000 T00781056
KRFD 091854Z 28031G45KT 10SM -SN SCT060 BKN070 OVC095 07/M08 A2979 RMK AO2 PK WND 27045/1854 SNB50 SLP093 P0000 T00671078
KRFD 091754Z 29021G32KT 10SM SCT042 SCT050 BKN060 08/M07 A2980 RMK AO2 PK WND 27044/1702 SNB44E54 SLP093 P0000 60000 T00831067 10094 20022 58006
KRFD 091654Z 31022G36KT 10SM SCT065 09/M07 A2981 RMK AO2 PK WND 30038/1625 SLP097 T00891067
KRFD 091554Z 30019G40KT 10SM FEW055 08/M06 A2981 RMK AO2 PK WND 28041/1519 SLP098 T00781056
KRFD 091454Z 29023G34KT 10SM FEW050 FEW250 07/M06 A2981 RMK AO2 PK WND 28037/1431 SLP099 T00671056 58010
KRFD 091354Z 29020G26KT 10SM FEW250 05/M03 A2983 RMK AO2 PK WND 29027/1343 SLP106 T00501033
KRFD 091254Z 29015G24KT 10SM CLR 04/M03 A2985 RMK AO2 SLP112 T00391033
KRFD 091154Z 27011KT 10SM CLR 03/M03 A2985 RMK AO2 SLP111 70024 T00281028 10067 20022 53014
KRFD 091054Z 28012G21KT 10SM CLR 03/M03 A2981 RMK AO2 SLP099 T00281028 $
KRFD 090954Z 29015G23KT 10SM CLR 04/M03 A2980 RMK AO2 PK WND 29028/0937 SLP093 T00391033 $
KRFD 090854Z 29017G24KT 10SM CLR 05/M03 A2980 RMK AO2 PK WND 28026/0809 SLP095 T00501028 53012 $